Terminal Aerodrome Forecast
Issued by NWS

Home | Current Version | Previous Version | Text Only | Print | Product List | Glossary On
Versions: 1 2 3 4 5 6 7 8 9 10 11 12 13 14 15 16 17 18 19 20 21 22 23 24 25 26 27 28 29
000
FTUS45 KCYS 012325
TAFRWL
TAF
KRWL 012325Z 0200/0224 05009KT P6SM VCTS BKN100CB
      TEMPO 0200/0202 VRB25G40KT 4SM TSRA BKN040CB
     FM020200 05008KT P6SM BKN100
     FM020800 35007KT P6SM SCT100
     FM021900 01010KT P6SM VCTS BKN100CB=

USA.gov is the U.S. government's official web portal to all federal, state and local government web resources and services.